Home   Weather   United Kingdom   Stoke-on-Trent   Past weeks
Flag for United Kingdom

Past Weather in Stoke-on-Trent, England, United Kingdom — Yesterday and Last 2 Weeks

Currently: 55 °F. Clear. (Weather station: Manchester Airport, United Kingdom). See more current weather

Past Weather in Stoke-on-Trent — Graph

°F

Stoke-on-Trent Temperature Yesterday

Maximum temperature yesterday: 77 °F (at 3:20 pm)
Minimum temperature yesterday: 48 °F (at 3:50 am)
Average temperature yesterday: 66 °F

High & Low Weather Summary for the Past Weeks

 TemperatureHumidityPressure
High77 °F (Aug 9, 3:20 pm)100% (Jul 26, 4:50 am)30.45 "Hg (Jul 26, 4:50 am)
Low46 °F (Jul 27, 5:20 am)39% (Aug 9, 6:20 pm)29.80 "Hg (Aug 2, 8:20 pm)
Average62 °F74%30.12 "Hg
* Reported Jul 26 2:20 am — Aug 10 2:20 am, Stoke-on-Trent. Weather by CustomWeather, © 2022

Note: Actual official high and low records may vary slightly from our data, if they occured in-between our weather recording intervals... More about our weather records

Stoke-on-Trent Weather History for the Previous 24 Hours

Scroll right to see more
 ConditionsComfort  
Time TempWeatherWind HumidityBarometerVisibility
2:20 am
Wed, Aug 10
54 °FClear.1 mph88%30.36 "Hg1 mi
1:50 am55 °FLight rain. Overcast.2 mph88%30.36 "HgN/A
11:50 pm
Tue, Aug 9
59 °FCool.1 mph77%30.36 "HgN/A
11:20 pm59 °FCool.1 mph77%30.36 "HgN/A
10:50 pm64 °FMild.2 mph64%30.39 "HgN/A
10:20 pm70 °FMild.2 mph53%30.39 "HgN/A
9:50 pm72 °FMild.5 mph47%30.39 "HgN/A
9:20 pm73 °FMild.5 mph41%30.39 "HgN/A
8:50 pm73 °FMild.5 mph44%30.36 "HgN/A
8:20 pm75 °FMild.3 mph41%30.36 "HgN/A
7:50 pm75 °FMild.5 mph41%30.36 "HgN/A
7:20 pm75 °FMild.5 mph44%30.36 "HgN/A
6:50 pm77 °FWarm.5 mph42%30.36 "HgN/A
6:20 pm77 °FPleasantly warm.5 mph39%30.36 "HgN/A
5:50 pm77 °FWarm.6 mph42%30.36 "HgN/A
5:20 pm77 °FWarm.5 mph42%30.36 "HgN/A
4:50 pm77 °FWarm.5 mph42%30.36 "HgN/A
4:20 pm77 °FWarm.5 mph42%30.39 "HgN/A
3:50 pm77 °FWarm.3 mph44%30.39 "HgN/A
3:20 pm77 °FWarm.5 mph44%30.39 "HgN/A
2:20 pm75 °FMild.7 mph50%30.39 "HgN/A
1:50 pm75 °FMild.5 mph47%30.42 "HgN/A
1:20 pm75 °FMild.5 mph47%30.42 "HgN/A
12:50 pm73 °FMild.6 mph47%30.42 "HgN/A
12:20 pm72 °FMild.2 mph47%30.42 "HgN/A
11:50 am72 °FMild.2 mph41%30.42 "HgN/A
11:20 am70 °FMild.5 mph43%30.45 "HgN/A
10:20 am66 °FMild.2 mph56%30.45 "HgN/A
9:50 am64 °FMild.2 mph64%30.45 "HgN/A
9:20 am63 °FMild.2 mph77%30.45 "HgN/A
8:50 am63 °FMild.2 mph73%30.45 "HgN/A
8:20 am61 °FCool.2 mph72%30.42 "HgN/A
7:50 am57 °FCool.1 mph82%30.42 "HgN/A
7:20 am54 °FCool.2 mph88%30.42 "HgN/A
6:50 am52 °FCool.2 mph88%30.42 "HgN/A
5:50 am48 °FCool.3 mph94%30.42 "HgN/A
5:20 am48 °FCool.1 mph94%30.42 "HgN/A
4:50 am48 °FCool.2 mph94%30.42 "HgN/A
4:20 am50 °FCool.2 mph94%30.42 "HgN/A
3:50 am48 °FCool.1 mph94%30.39 "HgN/A
3:20 am50 °FCool.1 mph94%30.42 "HgN/A
Weather by CustomWeather, © 2022

See weather overview